createdAt,value
2018-02-23T00:00:43.940Z,102512.80
2018-02-23T00:03:11.644Z,102512.50
2018-02-23T00:05:39.674Z,102509.11
2018-02-23T00:08:07.243Z,102510.23
2018-02-23T00:10:34.825Z,102511.87
2018-02-23T00:13:02.771Z,102522.95
2018-02-23T00:15:30.628Z,102514.52
2018-02-23T00:17:58.598Z,102511.95
2018-02-23T00:20:26.334Z,102506.60
2018-02-23T00:22:54.238Z,102510.38
2018-02-23T00:25:21.828Z,102509.64
2018-02-23T00:27:49.471Z,102503.81
2018-02-23T00:30:17.093Z,102507.39
2018-02-23T00:32:44.785Z,102507.29
2018-02-23T00:35:12.406Z,102504.63
2018-02-23T00:37:39.987Z,102508.22
2018-02-23T00:40:07.635Z,102503.17
2018-02-23T00:42:35.251Z,102502.24
2018-02-23T00:45:02.875Z,102504.89
2018-02-23T00:47:30.586Z,102503.63
2018-02-23T00:49:58.247Z,102502.60
2018-02-23T00:52:26.094Z,102500.43
2018-02-23T00:54:53.724Z,102501.15
2018-02-23T00:57:21.386Z,102507.41
2018-02-23T00:59:49.004Z,102506.87
2018-02-23T01:02:16.617Z,102496.29
2018-02-23T01:04:44.282Z,102495.08
2018-02-23T01:07:11.876Z,102496.19
2018-02-23T01:09:39.467Z,102494.73
2018-02-23T01:12:07.108Z,102500.16
2018-02-23T01:14:34.710Z,102496.17
2018-02-23T01:17:02.288Z,102495.14
2018-02-23T01:19:29.938Z,102489.09
2018-02-23T01:21:57.581Z,102488.55
2018-02-23T01:24:25.593Z,102483.63
2018-02-23T01:26:55.167Z,102484.64
2018-02-23T01:29:22.804Z,102482.39
2018-02-23T01:31:50.402Z,102484.73
2018-02-23T01:34:18.389Z,102478.67
2018-02-23T01:36:46.049Z,102474.48
2018-02-23T01:39:13.685Z,102474.27
2018-02-23T01:41:41.330Z,102469.63
2018-02-23T01:44:08.934Z,102467.88
2018-02-23T01:46:36.556Z,102468.39
2018-02-23T01:49:04.219Z,102467.03
2018-02-23T01:51:31.835Z,102466.45
2018-02-23T01:53:59.454Z,102467.66
2018-02-23T01:56:27.137Z,102460.70
2018-02-23T01:58:54.822Z,102463.47
2018-02-23T02:01:22.472Z,102456.06
2018-02-23T02:03:50.102Z,102458.98
2018-02-23T02:06:17.770Z,102458.91
2018-02-23T02:08:45.390Z,102456.89
2018-02-23T02:11:13.056Z,102448.88
2018-02-23T02:13:40.984Z,102447.20
2018-02-23T02:16:08.953Z,102443.41
2018-02-23T02:18:36.930Z,102441.33
2018-02-23T02:21:04.598Z,102441.88
2018-02-23T02:23:32.253Z,102440.20
2018-02-23T02:25:59.868Z,102441.66
2018-02-23T02:28:27.530Z,102437.53
2018-02-23T02:30:55.136Z,102435.07
2018-02-23T02:33:22.735Z,102432.19
2018-02-23T02:35:50.391Z,102434.04
2018-02-23T02:38:17.990Z,102429.83
2018-02-23T02:40:45.590Z,102425.48
2018-02-23T02:43:13.242Z,102425.06
2018-02-23T02:45:40.837Z,102424.91
2018-02-23T02:48:08.421Z,102431.13
2018-02-23T02:50:36.050Z,102426.81
2018-02-23T02:53:03.637Z,102425.91
2018-02-23T02:55:31.223Z,102420.36
2018-02-23T02:57:58.845Z,102416.96
2018-02-23T03:00:26.500Z,102422.11
2018-02-23T03:02:54.397Z,102418.09
2018-02-23T03:05:22.015Z,102418.09
2018-02-23T03:07:49.663Z,102411.94
2018-02-23T03:10:17.269Z,102415.50
2018-02-23T03:12:45.184Z,102414.38
2018-02-23T03:15:12.780Z,102414.47
2018-02-23T03:17:40.472Z,102413.73
2018-02-23T03:20:08.074Z,102418.53
2018-02-23T03:22:35.686Z,102417.41
2018-02-23T03:25:03.704Z,102422.18
2018-02-23T03:27:31.289Z,102418.61
2018-02-23T03:29:58.917Z,102424.25
2018-02-23T03:32:26.566Z,102420.06
2018-02-23T03:34:54.240Z,102426.32
2018-02-23T03:37:21.844Z,102426.94
2018-02-23T03:39:49.486Z,102424.18
2018-02-23T03:42:17.088Z,102424.80
2018-02-23T03:44:44.699Z,102428.02
2018-02-23T03:47:12.358Z,102416.67
2018-02-23T03:49:39.946Z,102421.27
2018-02-23T03:52:07.560Z,102419.50
2018-02-23T03:54:35.322Z,102427.34
2018-02-23T03:57:02.928Z,102423.64
2018-02-23T03:59:30.608Z,102432.98
2018-02-23T04:01:58.248Z,102428.20
2018-02-23T04:04:25.854Z,102426.08
2018-02-23T04:06:53.704Z,102420.85
2018-02-23T04:09:21.305Z,102423.31
2018-02-23T04:11:48.933Z,102417.88
2018-02-23T04:14:16.811Z,102423.61
2018-02-23T04:16:44.426Z,102415.82
2018-02-23T04:19:12.380Z,102419.94
2018-02-23T04:21:40.015Z,102419.34
2018-02-23T04:24:07.615Z,102417.72
2018-02-23T04:26:35.421Z,102420.06
2018-02-23T04:29:03.051Z,102420.48
2018-02-23T04:31:30.915Z,102416.71
2018-02-23T04:33:58.508Z,102425.30
2018-02-23T04:36:26.185Z,102419.81
2018-02-23T04:38:53.781Z,102413.66
2018-02-23T04:41:21.369Z,102421.55
2018-02-23T04:43:49.026Z,102425.10
2018-02-23T04:46:16.657Z,102427.05
2018-02-23T04:48:44.259Z,102423.69
2018-02-23T04:51:11.906Z,102430.37
2018-02-23T04:53:39.551Z,102431.92
2018-02-23T04:56:07.366Z,102432.09
2018-02-23T04:58:34.987Z,102435.39
2018-02-23T05:01:02.662Z,102434.88
2018-02-23T05:03:30.496Z,102434.18
2018-02-23T05:05:58.089Z,102440.54
2018-02-23T05:08:25.759Z,102433.48
2018-02-23T05:10:53.363Z,102435.35
2018-02-23T05:13:21.186Z,102439.10
2018-02-23T05:15:48.914Z,102434.00
2018-02-23T05:18:16.560Z,102438.44
2018-02-23T05:20:44.147Z,102439.14
2018-02-23T05:23:11.736Z,102441.11
2018-02-23T05:25:39.378Z,102444.48
2018-02-23T05:28:07.057Z,102446.26
2018-02-23T05:30:34.670Z,102442.89
2018-02-23T05:33:02.274Z,102444.74
2018-02-23T05:35:30.830Z,102440.33
2018-02-23T05:37:58.424Z,102442.41
2018-02-23T05:40:26.043Z,102431.52
2018-02-23T05:42:53.731Z,102436.75
2018-02-23T05:45:21.336Z,102438.30
2018-02-23T05:47:48.946Z,102429.89
2018-02-23T05:50:16.628Z,102432.57
2018-02-23T05:52:44.262Z,102434.97
2018-02-23T05:55:11.858Z,102432.59
2018-02-23T05:57:39.490Z,102442.87
2018-02-23T06:00:07.203Z,102440.91
2018-02-23T06:02:34.895Z,102443.17
2018-02-23T06:05:02.502Z,102440.03
2018-02-23T06:07:30.153Z,102443.29
2018-02-23T06:09:57.821Z,102448.83
2018-02-23T06:12:25.699Z,102456.92
2018-02-23T06:14:53.379Z,102464.48
2018-02-23T06:17:26.734Z,102468.12
2018-02-23T06:20:00.006Z,102474.36
2018-02-23T06:22:27.632Z,102475.89
2018-02-23T06:24:55.302Z,102477.83
2018-02-23T06:27:23.000Z,102484.00
2018-02-23T06:29:50.632Z,102491.68
2018-02-23T06:32:18.303Z,102486.47
2018-02-23T06:34:45.936Z,102481.23
2018-02-23T06:37:13.534Z,102488.61
2018-02-23T06:39:41.189Z,102489.44
2018-02-23T06:42:08.791Z,102495.59
2018-02-23T06:44:36.390Z,102494.91
2018-02-23T06:47:09.655Z,102496.62
2018-02-23T06:49:37.292Z,102493.05
2018-02-23T06:52:05.000Z,102504.03
2018-02-23T06:54:32.632Z,102499.29
2018-02-23T06:57:00.272Z,102503.30
2018-02-23T06:59:27.967Z,102496.86
2018-02-23T07:01:55.580Z,102510.51
2018-02-23T07:04:23.203Z,102518.20
2018-02-23T07:06:50.855Z,102514.84
2018-02-23T07:09:18.448Z,102519.55
2018-02-23T07:11:46.057Z,102519.65
2018-02-23T07:14:13.701Z,102518.33
2018-02-23T07:16:41.336Z,102514.22
2018-02-23T07:19:09.187Z,102515.75
2018-02-23T07:21:36.839Z,102516.77
2018-02-23T07:24:04.443Z,102529.16
2018-02-23T07:26:32.026Z,102531.33
2018-02-23T07:28:59.860Z,102533.18
2018-02-23T07:31:27.499Z,102539.44
2018-02-23T07:33:55.149Z,102536.27
2018-02-23T07:36:22.735Z,102540.59
2018-02-23T07:38:50.379Z,102534.77
2018-02-23T07:41:18.027Z,102536.95
2018-02-23T07:43:45.660Z,102533.16
2018-02-23T07:46:13.644Z,102538.61
2018-02-23T07:48:41.277Z,102538.31
2018-02-23T07:51:08.927Z,102546.52
2018-02-23T07:53:36.650Z,102549.63
2018-02-23T07:56:04.687Z,102548.91
2018-02-23T07:58:32.381Z,102551.41
2018-02-23T08:01:00.092Z,102545.67
2018-02-23T08:03:27.951Z,102548.75
2018-02-23T08:05:55.601Z,102542.69
2018-02-23T08:08:23.254Z,102548.98
2018-02-23T08:10:50.857Z,102554.22
2018-02-23T08:13:18.494Z,102551.56
2018-02-23T08:15:46.154Z,102553.30
2018-02-23T08:18:13.796Z,102556.61
2018-02-23T08:20:41.420Z,102558.07
2018-02-23T08:23:09.129Z,102556.43
2018-02-23T08:25:36.736Z,102557.67
2018-02-23T08:28:04.415Z,102557.70
2018-02-23T08:30:32.037Z,102557.61
2018-02-23T08:32:59.663Z,102550.94
2018-02-23T08:35:27.315Z,102550.24
2018-02-23T08:37:54.939Z,102549.63
2018-02-23T08:40:22.605Z,102552.52
2018-02-23T08:42:50.213Z,102546.17
2018-02-23T08:45:17.811Z,102553.38
2018-02-23T08:47:45.449Z,102550.60
2018-02-23T08:50:13.052Z,102560.45
2018-02-23T08:52:40.723Z,102558.94
2018-02-23T08:55:08.342Z,102557.99
2018-02-23T08:57:35.971Z,102558.00
2018-02-23T09:00:03.647Z,102557.78
2018-02-23T09:02:31.279Z,102561.69
2018-02-23T09:04:58.999Z,102556.38
2018-02-23T09:07:26.675Z,102561.80
2018-02-23T09:09:54.270Z,102564.69
2018-02-23T09:12:21.939Z,102549.30
2018-02-23T09:14:49.588Z,102558.42
2018-02-23T09:17:17.225Z,102554.63
2018-02-23T09:19:44.880Z,102553.51
2018-02-23T09:22:12.532Z,102552.46
2018-02-23T09:24:40.191Z,102552.88
2018-02-23T09:27:07.827Z,102556.78
2018-02-23T09:29:35.554Z,102553.72
2018-02-23T09:32:03.279Z,102542.51
2018-02-23T09:34:37.805Z,102537.69
2018-02-23T09:37:05.436Z,102542.19
2018-02-23T09:39:33.087Z,102545.38
2018-02-23T09:42:00.773Z,102537.57
2018-02-23T09:44:28.467Z,102535.20
2018-02-23T09:46:56.116Z,102539.50
2018-02-23T09:49:23.810Z,102535.09
2018-02-23T09:51:51.458Z,102533.56
2018-02-23T09:54:19.094Z,102545.98
2018-02-23T09:56:46.775Z,102537.88
2018-02-23T09:59:14.398Z,102536.44
2018-02-23T10:01:42.060Z,102538.16
2018-02-23T10:04:10.092Z,102540.34
2018-02-23T10:06:37.708Z,102545.48
2018-02-23T10:09:05.426Z,102546.61
2018-02-23T10:11:33.066Z,102543.61
2018-02-23T10:14:00.898Z,102550.82
2018-02-23T10:16:28.826Z,102544.03
2018-02-23T10:18:56.459Z,102543.22
2018-02-23T10:21:24.445Z,102545.27
2018-02-23T10:23:52.080Z,102544.73
2018-02-23T10:26:19.680Z,102544.92
2018-02-23T10:28:47.366Z,102540.91
2018-02-23T10:31:15.044Z,102542.46
2018-02-23T10:33:42.679Z,102545.77
2018-02-23T10:36:10.357Z,102540.09
2018-02-23T10:38:37.998Z,102539.27
2018-02-23T10:41:05.707Z,102538.63
2018-02-23T10:43:33.373Z,102536.27
2018-02-23T10:46:01.373Z,102537.61
2018-02-23T10:48:29.092Z,102529.29
2018-02-23T10:50:56.759Z,102526.59
2018-02-23T10:53:24.689Z,102529.67
2018-02-23T10:55:52.365Z,102529.03
2018-02-23T10:58:20.011Z,102521.31
2018-02-23T11:00:47.626Z,102523.88
2018-02-23T11:03:15.295Z,102522.01
2018-02-23T11:05:42.918Z,102518.69
2018-02-23T11:08:10.571Z,102529.69
2018-02-23T11:10:38.231Z,102522.92
2018-02-23T11:13:05.866Z,102521.59
2018-02-23T11:15:37.047Z,102518.15
2018-02-23T11:18:04.728Z,102519.61
2018-02-23T11:20:32.359Z,102517.33
2018-02-23T11:22:59.979Z,102514.52
2018-02-23T11:25:27.651Z,102516.32
2018-02-23T11:27:55.268Z,102505.61
2018-02-23T11:30:22.953Z,102506.74
2018-02-23T11:32:50.648Z,102518.30
2018-02-23T11:35:18.328Z,102500.56
2018-02-23T11:37:45.996Z,102499.16
2018-02-23T11:40:13.588Z,102504.73
2018-02-23T11:42:41.185Z,102507.27
2018-02-23T11:45:08.818Z,102500.34
2018-02-23T11:47:36.445Z,102501.42
2018-02-23T11:50:04.109Z,102497.33
2018-02-23T11:52:32.044Z,102497.56
2018-02-23T12:00:45.824Z,102495.91
2018-02-23T12:03:13.427Z,102490.20
2018-02-23T12:05:41.042Z,102484.59
2018-02-23T12:08:08.773Z,102486.00
2018-02-23T12:10:36.380Z,102474.91
2018-02-23T12:13:03.998Z,102477.16
2018-02-23T12:15:31.639Z,102470.34
2018-02-23T12:17:59.370Z,102465.52
2018-02-23T12:20:26.974Z,102462.98
2018-02-23T12:22:54.607Z,102462.82
2018-02-23T12:25:22.239Z,102456.80
2018-02-23T12:27:49.836Z,102458.03
2018-02-23T12:30:17.494Z,102459.45
2018-02-23T12:32:45.153Z,102447.45
2018-02-23T12:35:12.866Z,102457.80
2018-02-23T12:37:40.475Z,102453.27
2018-02-23T12:40:08.089Z,102454.38
2018-02-23T12:42:35.816Z,102454.97
2018-02-23T12:45:03.476Z,102449.79
2018-02-23T12:47:31.333Z,102443.16
2018-02-23T12:49:58.963Z,102445.20
2018-02-23T12:52:26.859Z,102445.27
2018-02-23T12:54:54.440Z,102440.56
2018-02-23T12:57:22.178Z,102439.22
2018-02-23T12:59:49.937Z,102440.06
2018-02-23T13:02:17.681Z,102434.91
2018-02-23T13:04:45.284Z,102425.51
2018-02-23T13:07:12.973Z,102424.18
2018-02-23T13:09:40.596Z,102427.44
2018-02-23T13:12:08.355Z,102415.05
2018-02-23T13:14:41.594Z,102417.05
2018-02-23T13:17:09.197Z,102411.60
2018-02-23T13:19:36.786Z,102415.06
2018-02-23T13:22:04.458Z,102403.95
2018-02-23T13:24:32.070Z,102411.31
2018-02-23T13:27:05.519Z,102405.52
2018-02-23T13:29:33.162Z,102409.09
2018-02-23T13:32:00.816Z,102413.66
2018-02-23T13:34:28.519Z,102414.45
2018-02-23T13:36:56.131Z,102418.95
2018-02-23T13:39:23.755Z,102413.39
2018-02-23T13:41:51.586Z,102405.95
2018-02-23T13:44:19.176Z,102414.00
2018-02-23T13:46:46.840Z,102415.97
2018-02-23T13:49:14.424Z,102411.06
2018-02-23T13:51:42.026Z,102413.66
2018-02-23T13:54:15.468Z,102406.49
2018-02-23T13:56:43.463Z,102406.91
2018-02-23T13:59:11.175Z,102403.72
2018-02-23T14:01:38.883Z,102397.36
2018-02-23T14:04:06.534Z,102402.18
2018-02-23T14:06:34.128Z,102400.05
2018-02-23T14:09:01.763Z,102402.02
2018-02-23T14:11:29.642Z,102393.48
2018-02-23T14:13:57.227Z,102399.66
2018-02-23T14:16:24.865Z,102399.51
2018-02-23T14:18:52.547Z,102387.48
2018-02-23T14:21:20.142Z,102388.02
2018-02-23T14:23:47.976Z,102386.81
2018-02-23T14:26:15.761Z,102386.42
2018-02-23T14:28:43.662Z,102384.00
2018-02-23T14:31:11.317Z,102383.03
2018-02-23T14:33:38.989Z,102383.86
2018-02-23T14:36:06.650Z,102387.10
2018-02-23T14:38:34.380Z,102385.20
2018-02-23T14:41:02.232Z,102388.42
2018-02-23T14:43:29.948Z,102384.75
2018-02-23T14:45:57.641Z,102390.33
2018-02-23T14:48:37.305Z,102387.75
2018-02-23T14:51:10.956Z,102395.13
2018-02-23T14:53:38.653Z,102400.78
2018-02-23T14:56:06.307Z,102394.24
2018-02-23T14:58:34.000Z,102394.03
2018-02-23T15:01:01.642Z,102384.62
2018-02-23T15:03:29.247Z,102383.72
2018-02-23T15:05:56.947Z,102385.16
2018-02-23T15:08:24.629Z,102392.16
2018-02-23T15:10:52.344Z,102391.97
2018-02-23T15:13:20.256Z,102374.62
2018-02-23T15:15:47.904Z,102382.44
2018-02-23T15:18:15.588Z,102382.78
2018-02-23T15:20:43.260Z,102381.75
2018-02-23T15:23:10.915Z,102378.67
2018-02-23T15:25:38.596Z,102388.45
2018-02-23T15:28:06.248Z,102382.86
2018-02-23T15:30:45.672Z,102379.43
2018-02-23T15:33:13.271Z,102378.73
2018-02-23T15:35:40.918Z,102373.42
2018-02-23T15:38:08.618Z,102368.52
2018-02-23T15:40:36.191Z,102365.39
2018-02-23T15:43:03.791Z,102370.80
2018-02-23T15:45:31.599Z,102381.09
2018-02-23T15:48:05.038Z,102380.67
2018-02-23T15:50:38.141Z,102371.46
2018-02-23T15:53:05.793Z,102378.73
2018-02-23T15:55:33.418Z,102379.91
2018-02-23T15:58:06.862Z,102378.87
2018-02-23T16:00:34.526Z,102378.39
2018-02-23T16:03:02.238Z,102368.04
2018-02-23T16:05:29.988Z,102366.59
2018-02-23T16:07:57.700Z,102368.31
2018-02-23T16:10:25.328Z,102360.89
2018-02-23T16:12:52.951Z,102372.73
2018-02-23T16:15:20.538Z,102373.89
2018-02-23T16:17:48.201Z,102374.20
2018-02-23T16:20:15.849Z,102373.41
2018-02-23T16:22:43.504Z,102376.56
2018-02-23T16:25:11.204Z,102377.34
2018-02-23T16:27:38.873Z,102378.47
2018-02-23T16:30:06.580Z,102381.28
2018-02-23T16:32:34.274Z,102380.98
2018-02-23T16:35:01.869Z,102383.56
2018-02-23T16:37:29.550Z,102382.81
2018-02-23T16:39:57.232Z,102385.89
2018-02-23T16:42:24.838Z,102387.95
2018-02-23T16:44:52.570Z,102386.31
2018-02-23T16:47:20.182Z,102387.97
2018-02-23T16:49:47.876Z,102391.28
2018-02-23T16:52:15.551Z,102395.74
2018-02-23T16:54:43.593Z,102399.02
2018-02-23T16:57:11.228Z,102398.52
2018-02-23T16:59:39.041Z,102402.45
2018-02-23T17:02:06.651Z,102395.13
2018-02-23T17:04:34.368Z,102392.67
2018-02-23T17:07:02.047Z,102390.24
2018-02-23T17:09:29.967Z,102393.56
2018-02-23T17:11:57.651Z,102386.81
2018-02-23T17:14:25.630Z,102390.84
2018-02-23T17:16:53.213Z,102399.44
2018-02-23T17:19:20.872Z,102405.23
2018-02-23T17:21:48.466Z,102405.25
2018-02-23T17:24:16.085Z,102402.47
2018-02-23T17:26:43.803Z,102408.63
2018-02-23T17:29:11.397Z,102402.27
2018-02-23T17:31:39.006Z,102402.06
2018-02-23T17:34:06.664Z,102408.54
2018-02-23T17:36:34.313Z,102409.27
2018-02-23T17:39:01.930Z,102411.84
2018-02-23T17:41:29.574Z,102411.12
2018-02-23T17:43:58.715Z,102418.32
2018-02-23T17:46:26.325Z,102422.12
2018-02-23T17:48:54.085Z,102423.88
2018-02-23T17:51:22.081Z,102427.67
2018-02-23T17:53:49.734Z,102426.44
2018-02-23T17:56:17.709Z,102429.01
2018-02-23T17:58:45.339Z,102433.33
2018-02-23T18:01:12.984Z,102433.92
2018-02-23T18:03:40.781Z,102434.73
2018-02-23T18:06:08.491Z,102440.07
2018-02-23T18:08:36.159Z,102441.72
2018-02-23T18:11:03.808Z,102442.14
2018-02-23T18:13:31.479Z,102443.27
2018-02-23T18:15:59.187Z,102454.95
2018-02-23T18:18:26.903Z,102455.69
2018-02-23T18:20:54.587Z,102451.68
2018-02-23T18:23:22.265Z,102449.60
2018-02-23T18:25:49.888Z,102449.39
2018-02-23T18:28:17.609Z,102448.79
2018-02-23T18:30:45.253Z,102451.78
2018-02-23T18:33:12.883Z,102442.33
2018-02-23T18:35:40.530Z,102459.95
2018-02-23T18:38:08.180Z,102459.34
2018-02-23T18:40:35.827Z,102466.60
2018-02-23T18:43:03.481Z,102463.64
2018-02-23T18:45:31.125Z,102466.91
2018-02-23T18:47:58.817Z,102473.04
2018-02-23T18:50:26.416Z,102470.08
2018-02-23T18:52:54.060Z,102474.87
2018-02-23T18:55:21.738Z,102469.75
2018-02-23T18:57:49.363Z,102472.62
2018-02-23T19:00:16.977Z,102473.13
2018-02-23T19:02:44.604Z,102481.11
2018-02-23T19:05:12.301Z,102478.22
2018-02-23T19:07:39.972Z,102480.17
2018-02-23T19:10:07.668Z,102486.41
2018-02-23T19:12:35.391Z,102491.14
2018-02-23T19:15:03.136Z,102497.48
2018-02-23T19:17:30.803Z,102492.95
2018-02-23T19:19:58.469Z,102497.47
2018-02-23T19:22:26.176Z,102497.66
2018-02-23T19:24:54.179Z,102494.25
2018-02-23T19:27:21.868Z,102496.65
2018-02-23T19:29:49.547Z,102502.45
2018-02-23T19:32:17.162Z,102509.64
2018-02-23T19:34:44.824Z,102502.84
2018-02-23T19:37:12.476Z,102502.00
2018-02-23T19:39:40.224Z,102504.98
2018-02-23T19:42:07.861Z,102505.00
2018-02-23T19:44:35.548Z,102509.00
2018-02-23T19:47:03.466Z,102508.77
2018-02-23T19:49:31.053Z,102513.27
2018-02-23T19:51:58.667Z,102511.02
2018-02-23T19:54:26.446Z,102506.27
2018-02-23T19:56:54.030Z,102504.57
2018-02-23T19:59:21.688Z,102512.42
2018-02-23T20:01:49.689Z,102513.03
2018-02-23T20:04:17.298Z,102515.58
2018-02-23T20:06:45.063Z,102521.11
2018-02-23T20:09:12.706Z,102519.05
2018-02-23T20:11:40.325Z,102519.22
2018-02-23T20:14:07.981Z,102515.42
2018-02-23T20:16:35.707Z,102527.94
2018-02-23T20:19:03.302Z,102524.52
2018-02-23T20:21:31.060Z,102527.48
2018-02-23T20:23:58.985Z,102526.42
2018-02-23T20:26:26.596Z,102527.66
2018-02-23T20:28:54.502Z,102526.94
2018-02-23T20:31:22.131Z,102525.41
2018-02-23T20:33:49.753Z,102524.42
2018-02-23T20:36:17.430Z,102524.83
2018-02-23T20:38:45.051Z,102530.16
2018-02-23T20:41:12.718Z,102526.94
2018-02-23T20:43:40.367Z,102524.05
2018-02-23T20:46:07.998Z,102525.59
2018-02-23T20:48:35.661Z,102525.79
2018-02-23T20:51:03.360Z,102536.84
2018-02-23T20:53:31.005Z,102530.28
2018-02-23T20:55:58.664Z,102532.80
2018-02-23T20:58:27.218Z,102528.05
2018-02-23T21:00:54.900Z,102522.12
2018-02-23T21:03:22.613Z,102526.85
2018-02-23T21:09:00.852Z,102522.44
2018-02-23T21:11:28.701Z,102521.06
2018-02-23T21:13:56.330Z,102516.42
2018-02-23T21:16:24.015Z,102518.32
2018-02-23T21:18:51.612Z,102515.23
2018-02-23T21:21:19.244Z,102516.89
2018-02-23T21:23:46.852Z,102528.11
2018-02-23T21:26:14.478Z,102515.48
2018-02-23T21:28:42.085Z,102520.03
2018-02-23T21:31:09.899Z,102525.69
2018-02-23T21:33:37.641Z,102525.48
2018-02-23T21:36:05.236Z,102526.39
2018-02-23T21:38:32.911Z,102530.98
2018-02-23T21:41:00.546Z,102527.51
2018-02-23T21:43:28.143Z,102528.29
2018-02-23T21:45:55.771Z,102533.25
2018-02-23T21:48:23.379Z,102533.00
2018-02-23T21:50:50.953Z,102531.47
2018-02-23T21:53:18.860Z,102538.09
2018-02-23T21:55:46.474Z,102525.37
2018-02-23T21:58:14.111Z,102536.15
2018-02-23T22:00:42.257Z,102536.45
2018-02-23T22:03:09.901Z,102542.38
2018-02-23T22:05:37.714Z,102534.56
2018-02-23T22:08:05.357Z,102540.73
2018-02-23T22:10:32.995Z,102535.99
2018-02-23T22:13:00.591Z,102530.12
2018-02-23T22:15:29.207Z,102530.64
2018-02-23T22:17:56.809Z,102534.08
2018-02-23T22:20:24.399Z,102544.24
2018-02-23T22:22:52.041Z,102543.98
2018-02-23T22:25:19.637Z,102542.20
2018-02-23T22:27:47.222Z,102544.24
2018-02-23T22:30:14.929Z,102554.27
2018-02-23T22:32:42.541Z,102546.26
2018-02-23T22:35:10.120Z,102551.22
2018-02-23T22:37:37.793Z,102559.23
2018-02-23T22:40:05.440Z,102554.23
2018-02-23T22:42:33.036Z,102569.40
2018-02-23T22:45:08.478Z,102572.77
2018-02-23T22:47:36.311Z,102580.50
2018-02-23T22:50:03.997Z,102569.81
2018-02-23T22:52:31.568Z,102572.22
2018-02-23T22:54:59.162Z,102568.72
2018-02-23T22:57:27.097Z,102567.80
2018-02-23T22:59:54.699Z,102565.24
2018-02-23T23:02:22.323Z,102570.11
2018-02-23T23:04:49.918Z,102564.72
2018-02-23T23:07:17.499Z,102570.08
2018-02-23T23:09:45.512Z,102571.12
2018-02-23T23:12:13.169Z,102575.27
2018-02-23T23:14:42.320Z,102573.52
2018-02-23T23:17:10.073Z,102575.44
2018-02-23T23:19:37.686Z,102572.87
2018-02-23T23:22:05.312Z,102575.11
2018-02-23T23:24:33.027Z,102570.44
2018-02-23T23:27:00.603Z,102576.05
2018-02-23T23:29:28.298Z,102589.03
2018-02-23T23:31:56.028Z,102587.76
2018-02-23T23:34:23.646Z,102594.76
2018-02-23T23:36:51.259Z,102592.69
2018-02-23T23:39:18.925Z,102598.00
2018-02-23T23:41:46.879Z,102596.25
2018-02-23T23:44:14.562Z,102594.23
2018-02-23T23:46:42.250Z,102589.17
2018-02-23T23:49:09.885Z,102577.27
2018-02-23T23:51:37.574Z,102581.55
2018-02-23T23:54:05.595Z,102575.41
2018-02-23T23:56:33.279Z,102577.71
2018-02-23T23:59:00.966Z,102578.33
